createdAt,value
2024-04-01T00:01:20.564Z,0
2024-04-01T00:06:21.565Z,0.1
2024-04-01T00:11:17.545Z,0.1
2024-04-01T00:16:17.839Z,0.1
2024-04-01T00:21:18.252Z,0.1
2024-04-01T00:26:18.840Z,0.1
2024-04-01T00:31:19.196Z,0.1
2024-04-01T00:36:19.921Z,0.1
2024-04-01T00:41:17.623Z,0.1
2024-04-01T00:46:17.458Z,0.1
2024-04-01T00:51:18.424Z,0.1
2024-04-01T00:56:17.889Z,0.1
2024-04-01T01:00:49.921Z,0
2024-04-01T01:05:50.579Z,0
2024-04-01T01:10:50.278Z,0
2024-04-01T01:15:47.242Z,0
2024-04-01T01:20:46.711Z,0
2024-04-01T01:25:46.650Z,0
2024-04-01T01:35:46.712Z,0
2024-04-01T01:40:46.650Z,0
2024-04-01T01:45:49.226Z,0
2024-04-01T01:50:46.978Z,0
2024-04-01T01:55:48.019Z,0
2024-04-01T02:00:44.354Z,0
2024-04-01T02:05:43.849Z,0
2024-04-01T02:10:43.908Z,0
2024-04-01T02:15:44.302Z,0
2024-04-01T02:20:44.138Z,0
2024-04-01T02:25:44.318Z,0
2024-04-01T02:30:43.824Z,0
2024-04-01T02:35:43.837Z,0
2024-04-01T02:40:42.259Z,0
2024-04-01T02:45:41.393Z,0
2024-04-01T02:50:41.290Z,0
2024-04-01T02:55:41.643Z,0
2024-04-01T03:00:41.589Z,0
2024-04-01T03:02:43.243Z,0
2024-04-01T03:07:16.410Z,0
2024-04-01T03:12:17.353Z,0
2024-04-01T03:17:14.509Z,0
2024-04-01T03:22:14.038Z,0
2024-04-01T03:27:14.370Z,0
2024-04-01T03:32:14.455Z,0
2024-04-01T03:37:16.383Z,0
2024-04-01T03:42:14.813Z,0
2024-04-01T03:47:01.316Z,0
2024-04-01T03:52:00.551Z,0
2024-04-01T03:57:00.646Z,0
2024-04-01T04:01:22.091Z,0
2024-04-01T04:06:21.870Z,0
2024-04-01T04:11:21.915Z,0
2024-04-01T04:16:22.127Z,0
2024-04-01T04:21:22.107Z,0
2024-04-01T04:26:23.254Z,0
2024-04-01T04:31:19.398Z,0
2024-04-01T04:36:19.446Z,0
2024-04-01T04:41:19.590Z,0
2024-04-01T04:46:19.234Z,0
2024-04-01T04:51:19.166Z,0
2024-04-01T04:56:19.616Z,0
2024-04-01T05:01:19.281Z,0
2024-04-01T05:06:17.679Z,0.1
2024-04-01T05:11:17.851Z,0.3
2024-04-01T05:16:17.722Z,0.5
2024-04-01T05:21:18.272Z,0.8
2024-04-01T05:26:18.148Z,0.8
2024-04-01T05:31:18.740Z,1
2024-04-01T05:36:19.684Z,1
2024-04-01T05:41:15.515Z,1.1
2024-04-01T05:46:15.866Z,1.3
2024-04-01T05:51:16.223Z,1.5
2024-04-01T05:56:16.101Z,1.5
2024-04-01T06:05:48.423Z,1.5
2024-04-01T06:10:46.538Z,1.6
2024-04-01T06:15:46.438Z,1.5
2024-04-01T06:20:45.668Z,1.3
2024-04-01T06:25:45.771Z,1.4
2024-04-01T06:30:45.335Z,1.3
2024-04-01T06:35:45.472Z,1.3
2024-04-01T06:40:45.849Z,1.3
2024-04-01T06:50:45.399Z,1.3
2024-04-01T06:55:42.814Z,1.3
2024-04-01T07:00:42.537Z,1
2024-04-01T07:05:42.104Z,1.1
2024-04-01T07:10:42.448Z,0.9
2024-04-01T07:15:42.100Z,0.8
2024-04-01T07:20:42.107Z,0.7
2024-04-01T07:25:42.472Z,0.7
2024-04-01T07:30:42.583Z,0.6
2024-04-01T07:35:43.771Z,0.5
2024-04-01T07:40:41.747Z,0.3
2024-04-01T07:45:39.612Z,0.2
2024-04-01T07:50:39.972Z,0.1
2024-04-01T07:55:39.631Z,0.1
2024-04-01T08:00:40.061Z,0
2024-04-01T08:05:44.501Z,0
2024-04-01T08:10:40.394Z,0
2024-04-01T08:15:38.104Z,0
2024-04-01T08:20:37.535Z,0
2024-04-01T08:25:37.434Z,0.1
2024-04-01T08:30:38.214Z,0.1
2024-04-01T08:35:38.217Z,0.1
2024-04-01T08:40:37.819Z,0.1
2024-04-01T08:45:40.962Z,0.1
2024-04-01T08:50:38.176Z,0.1
2024-04-01T08:55:39.136Z,0.1
2024-04-01T09:00:35.519Z,0.1
2024-04-01T09:05:35.052Z,0.1
2024-04-01T09:10:34.908Z,0.1
2024-04-01T09:15:35.470Z,0.1
2024-04-01T09:20:35.155Z,0.1
2024-04-01T09:25:34.875Z,0.1
2024-04-01T09:30:34.598Z,0.1
2024-04-01T09:35:35.757Z,0.3
2024-04-01T09:40:32.763Z,0.5
2024-04-01T09:50:31.585Z,0.6
2024-04-01T09:55:31.929Z,0.6
2024-04-01T10:00:31.752Z,0.6
2024-04-01T10:02:33.439Z,0.6
2024-04-01T10:06:54.879Z,0.8
2024-04-01T10:11:55.012Z,1.1
2024-04-01T10:16:53.525Z,1.3
2024-04-01T10:21:52.847Z,1.5
2024-04-01T10:26:52.742Z,1.5
2024-04-01T10:31:52.652Z,1.3
2024-04-01T10:41:52.255Z,1.1
2024-04-01T10:46:52.677Z,1
2024-04-01T10:51:52.300Z,1
2024-04-01T10:56:52.491Z,1.1
2024-04-01T11:01:16.980Z,1.1
2024-04-01T11:06:16.998Z,1
2024-04-01T11:11:26.425Z,0.6
2024-04-01T11:16:16.902Z,0.3
2024-04-01T11:21:16.598Z,0.3
2024-04-01T11:26:16.768Z,0.5
2024-04-01T11:31:19.532Z,0.6
2024-04-01T11:36:16.485Z,0.6
2024-04-01T11:41:13.810Z,0.8
2024-04-01T11:46:17.648Z,0.9
2024-04-01T11:51:13.986Z,1
2024-04-01T11:56:13.517Z,0.8
2024-04-01T12:00:57.276Z,1
2024-04-01T12:05:57.459Z,1
2024-04-01T12:10:57.885Z,0.9
2024-04-01T12:15:57.699Z,0.8
2024-04-01T12:20:59.048Z,0.6
2024-04-01T12:25:55.285Z,0.5
2024-04-01T12:30:55.110Z,0.5
2024-04-01T12:35:54.904Z,0.3
2024-04-01T12:40:54.927Z,0.3
2024-04-01T12:45:54.982Z,0.2
2024-04-01T12:50:55.379Z,0.1
2024-04-01T12:55:55.324Z,0.1
2024-04-01T13:00:57.470Z,0
2024-04-01T13:05:52.763Z,0
2024-04-01T13:10:52.372Z,0
2024-04-01T13:15:52.389Z,0
2024-04-01T13:25:52.615Z,0
2024-04-01T13:30:52.819Z,0
2024-04-01T13:35:56.727Z,0
2024-04-01T13:40:52.538Z,0
2024-04-01T13:45:51.194Z,0
2024-04-01T13:50:50.513Z,0
2024-04-01T13:55:50.074Z,0.1
2024-04-01T14:00:50.381Z,0.1
2024-04-01T14:10:49.929Z,0.1
2024-04-01T14:20:51.141Z,0.1
2024-04-01T14:25:49.616Z,0.1
2024-04-01T14:30:48.912Z,0.1
2024-04-01T14:35:48.726Z,0.1
2024-04-01T14:40:48.853Z,0.1
2024-04-01T14:45:48.473Z,0.1
2024-04-01T14:50:48.457Z,0.1
2024-04-01T14:55:48.742Z,0
2024-04-01T15:00:48.502Z,0
2024-04-01T15:10:46.037Z,0
2024-04-01T15:15:45.374Z,0
2024-04-01T15:20:46.855Z,0
2024-04-01T15:25:45.325Z,0
2024-04-01T15:30:45.082Z,0
2024-04-01T15:35:44.988Z,0
2024-04-01T15:40:45.385Z,0
2024-04-01T15:45:45.292Z,0
2024-04-01T15:50:46.239Z,0
2024-04-01T15:55:42.967Z,0
2024-04-01T16:00:42.270Z,0
2024-04-01T16:02:43.997Z,0
2024-04-01T16:07:17.644Z,0
2024-04-01T16:12:16.530Z,0
2024-04-01T16:17:16.269Z,0
2024-04-01T16:22:14.659Z,0
2024-04-01T16:27:14.947Z,0
2024-04-01T16:32:14.854Z,0
2024-04-01T16:37:32.345Z,0
2024-04-01T16:42:15.218Z,0
2024-04-01T16:47:15.902Z,0
2024-04-01T16:52:16.726Z,0
2024-04-01T16:57:02.310Z,0
2024-04-01T17:01:23.043Z,0
2024-04-01T17:06:23.296Z,0
2024-04-01T17:11:23.349Z,0
2024-04-01T17:16:23.029Z,0
2024-04-01T17:21:23.392Z,0
2024-04-01T17:26:22.833Z,0
2024-04-01T17:31:22.920Z,0
2024-04-01T17:36:20.637Z,0
2024-04-01T17:41:20.466Z,0
2024-04-01T17:46:40.013Z,0
2024-04-01T17:51:20.885Z,0
2024-04-01T17:56:20.549Z,0
2024-04-01T18:01:19.878Z,0
2024-04-01T18:06:20.642Z,0
2024-04-01T18:11:21.568Z,0
2024-04-01T18:16:18.398Z,0
2024-04-01T18:21:21.731Z,0
2024-04-01T18:26:18.640Z,0
2024-04-01T18:31:18.444Z,0
2024-04-01T18:36:19.095Z,0
2024-04-01T18:41:19.091Z,0
2024-04-01T18:46:16.257Z,0
2024-04-01T18:51:16.819Z,0
2024-04-01T18:56:16.582Z,0
2024-04-01T19:00:49.740Z,0
2024-04-01T19:05:49.715Z,0
2024-04-01T19:10:50.006Z,0
2024-04-01T19:20:47.962Z,0
2024-04-01T19:25:47.298Z,0
2024-04-01T19:30:47.288Z,0
2024-04-01T19:35:47.621Z,0
2024-04-01T19:40:47.151Z,0
2024-04-01T19:45:47.088Z,0
2024-04-01T19:50:47.743Z,0
2024-04-01T19:55:47.441Z,0
2024-04-01T20:00:48.764Z,0
2024-04-01T20:05:44.925Z,0
2024-04-01T20:10:44.491Z,0
2024-04-01T20:15:44.635Z,0
2024-04-01T20:20:45.155Z,0
2024-04-01T20:25:47.115Z,0
2024-04-01T20:30:45.019Z,0
2024-04-01T20:35:44.597Z,0
2024-04-01T20:40:44.518Z,0
2024-04-01T20:50:42.629Z,0
2024-04-01T20:56:15.445Z,0
2024-04-01T21:00:42.920Z,0
2024-04-01T21:02:44.711Z,0
2024-04-01T21:07:16.802Z,0
2024-04-01T21:12:27.822Z,0
2024-04-01T21:17:15.121Z,0
2024-04-01T21:22:15.306Z,0
2024-04-01T21:27:18.575Z,0
2024-04-01T21:32:15.396Z,0
2024-04-01T21:37:15.418Z,0
2024-04-01T21:42:15.942Z,0
2024-04-01T21:47:16.984Z,0
2024-04-01T21:52:02.243Z,0
2024-04-01T21:57:01.922Z,0
2024-04-01T22:01:25.684Z,0
2024-04-01T22:06:23.509Z,0
2024-04-01T22:11:22.943Z,0
2024-04-01T22:16:23.086Z,0
2024-04-01T22:21:22.691Z,0
2024-04-01T22:26:22.746Z,0
2024-04-01T22:31:22.761Z,0
2024-04-01T22:36:20.033Z,0
2024-04-01T22:41:19.985Z,0
2024-04-01T22:46:20.486Z,0
2024-04-01T22:51:20.532Z,0
2024-04-01T22:56:20.635Z,0
2024-04-01T23:01:20.019Z,0
2024-04-01T23:06:21.498Z,0
2024-04-01T23:11:17.079Z,0
2024-04-01T23:16:31.489Z,0
2024-04-01T23:21:30.808Z,0
2024-04-01T23:26:18.399Z,0
2024-04-01T23:31:18.550Z,0
2024-04-01T23:36:18.305Z,0
2024-04-01T23:41:16.780Z,0
2024-04-01T23:46:16.909Z,0
2024-04-01T23:51:16.719Z,0
2024-04-01T23:56:17.116Z,0
